Time;durP1;ratioP1;P1;durP2;ratioP2;P2;SDS_P1;SDS_P2;PMS_P1;PMS_P2;Temp;Humidity;BMP_temperature;BMP_pressure;BME280_temperature;BME280_humidity;BME280_pressure;Samples;Min_cycle;Max_cycle;Signal;HPM_P1;HPM_P2
2024/01/29 00:01:01;;;;;;;1.00;1.00;;;7.70;99.90;;;;;;5068773;28;20051;-85
2024/01/29 00:03:27;;;;;;;0.90;0.90;;;7.50;1.00;;;;;;5063735;28;20586;-87
2024/01/29 00:05:53;;;;;;;1.00;1.00;;;7.50;1.00;;;;;;5050986;28;20052;-86
2024/01/29 00:08:18;;;;;;;1.00;1.00;;;7.50;1.00;;;;;;5065347;28;20040;-86
2024/01/29 00:10:44;;;;;;;1.00;1.00;;;7.50;1.00;;;;;;5066238;28;20055;-86
2024/01/29 00:13:10;;;;;;;0.95;0.95;;;7.50;1.00;;;;;;5065703;28;20405;-86
2024/01/29 00:15:35;;;;;;;1.00;1.00;;;7.50;1.00;;;;;;5066369;28;20096;-86
2024/01/29 00:18:01;;;;;;;1.00;1.00;;;7.30;1.00;;;;;;5064546;28;20074;-86
2024/01/29 00:20:27;;;;;;;1.00;1.00;;;7.40;1.00;;;;;;5066253;28;20044;-86
2024/01/29 00:22:52;;;;;;;1.00;1.00;;;7.30;1.00;;;;;;5062046;28;20443;-86
2024/01/29 00:25:18;;;;;;;1.00;1.00;;;7.20;1.00;;;;;;5064688;28;20047;-85
2024/01/29 00:27:44;;;;;;;1.02;1.02;;;7.20;1.00;;;;;;5065164;28;20071;-87
2024/01/29 00:30:10;;;;;;;1.00;1.00;;;7.20;1.00;;;;;;5065868;28;20044;-86
2024/01/29 00:32:36;;;;;;;0.98;0.98;;;7.20;1.00;;;;;;5047431;28;20044;-86
2024/01/29 00:35:01;;;;;;;1.00;1.00;;;7.20;1.00;;;;;;5065382;28;20508;-86
2024/01/29 00:37:28;;;;;;;1.00;1.00;;;7.20;1.00;;;;;;5064393;28;20456;-86
2024/01/29 00:39:53;;;;;;;1.00;1.00;;;7.20;1.00;;;;;;5065132;28;20051;-86
2024/01/29 00:42:19;;;;;;;1.00;1.00;;;7.30;1.00;;;;;;5065949;28;20053;-86
2024/01/29 00:44:45;;;;;;;1.00;1.00;;;7.20;1.00;;;;;;5066068;28;20048;-86
2024/01/29 00:47:11;;;;;;;1.00;1.00;;;7.20;1.00;;;;;;5050132;28;20040;-86
2024/01/29 00:49:37;;;;;;;1.00;1.00;;;7.20;1.00;;;;;;5048123;28;20046;-86
2024/01/29 00:52:04;;;;;;;1.08;1.08;;;7.10;1.00;;;;;;5045987;28;20045;-87
2024/01/29 00:54:30;;;;;;;1.00;1.00;;;7.00;1.00;;;;;;5064492;28;21422;-86
2024/01/29 00:56:56;;;;;;;1.02;1.02;;;6.90;1.00;;;;;;5063338;28;20062;-86
2024/01/29 00:59:22;;;;;;;1.08;1.08;;;6.80;1.00;;;;;;5063990;28;20553;-86
2024/01/29 01:01:48;;;;;;;1.00;1.00;;;6.80;1.00;;;;;;5056546;28;20044;-86
2024/01/29 01:04:14;;;;;;;1.00;1.00;;;6.90;1.00;;;;;;5042673;28;20048;-86
2024/01/29 01:06:40;;;;;;;1.00;1.00;;;6.80;1.00;;;;;;5063135;28;20055;-86
2024/01/29 01:09:06;;;;;;;1.00;1.00;;;6.80;1.00;;;;;;5066654;28;20047;-86
2024/01/29 01:11:31;;;;;;;0.90;0.90;;;6.80;1.00;;;;;;5063929;28;20047;-86
2024/01/29 01:13:57;;;;;;;1.00;1.00;;;6.80;1.00;;;;;;5064190;28;20131;-86
2024/01/29 01:16:23;;;;;;;1.00;1.00;;;6.70;1.00;;;;;;5043704;28;20158;-86
2024/01/29 01:18:49;;;;;;;1.05;1.05;;;6.70;1.00;;;;;;5047873;28;20113;-86
2024/01/29 01:21:15;;;;;;;1.00;1.00;;;6.80;1.00;;;;;;5061178;28;20402;-86
2024/01/29 01:23:40;;;;;;;1.00;1.00;;;6.70;1.00;;;;;;5065140;28;20052;-86
2024/01/29 01:26:06;;;;;;;1.00;1.00;;;6.70;1.00;;;;;;5065840;28;20404;-86
2024/01/29 01:28:32;;;;;;;1.08;1.08;;;6.70;1.00;;;;;;5063989;28;20177;-86
2024/01/29 01:30:57;;;;;;;1.00;1.00;;;6.80;1.00;;;;;;5064747;28;20389;-87
2024/01/29 01:33:23;;;;;;;1.00;1.00;;;6.80;1.00;;;;;;5063441;28;20113;-87
2024/01/29 01:35:49;;;;;;;1.00;1.00;;;6.80;1.00;;;;;;5048750;28;20264;-86
2024/01/29 01:38:14;;;;;;;1.00;1.00;;;6.80;1.00;;;;;;5052136;28;20036;-86
2024/01/29 01:40:40;;;;;;;1.00;1.00;;;6.80;1.00;;;;;;5064777;28;20512;-86
2024/01/29 01:43:24;;;;;;;1.00;1.00;;;6.80;1.00;;;;;;5065336;28;20048;-86
2024/01/29 01:46:19;;;;;;;1.00;1.00;;;6.70;1.00;;;;;;5062042;28;20374;-86
2024/01/29 01:48:45;;;;;;;1.00;1.00;;;6.70;1.00;;;;;;5041641;28;20047;-86
2024/01/29 01:51:11;;;;;;;1.00;1.00;;;6.70;1.00;;;;;;5067458;28;20052;-86
2024/01/29 01:53:38;;;;;;;1.00;1.00;;;6.70;1.00;;;;;;5051520;28;20475;-86
2024/01/29 01:56:06;;;;;;;1.00;1.00;;;6.70;1.00;;;;;;5066995;28;20097;-85
2024/01/29 01:58:33;;;;;;;1.00;1.00;;;6.60;1.00;;;;;;5055741;28;20051;-86
2024/01/29 02:00:59;;;;;;;1.00;1.00;;;6.50;1.00;;;;;;5051182;28;20458;-86
2024/01/29 02:03:28;;;;;;;1.00;1.00;;;6.50;1.00;;;;;;5050478;28;20128;-86
2024/01/29 02:05:55;;;;;;;1.00;1.00;;;6.40;1.00;;;;;;5069024;28;20044;-85
2024/01/29 02:08:21;;;;;;;1.10;1.10;;;6.50;1.00;;;;;;5049841;28;20043;-86
2024/01/29 02:10:49;;;;;;;1.00;1.00;;;6.50;1.00;;;;;;5051453;28;20107;-85
2024/01/29 02:13:15;;;;;;;1.10;1.10;;;6.50;1.00;;;;;;5069821;28;20443;-86
2024/01/29 02:15:43;;;;;;;1.08;1.08;;;6.60;1.00;;;;;;5068285;28;20085;-86
2024/01/29 02:18:09;;;;;;;1.10;1.10;;;6.60;1.00;;;;;;5068396;28;20063;-86
2024/01/29 02:20:35;;;;;;;1.10;1.10;;;6.70;1.00;;;;;;5052766;28;20040;-86
2024/01/29 02:23:02;;;;;;;1.00;1.00;;;6.70;1.00;;;;;;5067110;28;20047;-85
2024/01/29 02:25:28;;;;;;;1.10;1.10;;;6.70;1.00;;;;;;5067835;28;20143;-86
2024/01/29 02:27:53;;;;;;;1.02;1.02;;;6.80;1.00;;;;;;5069650;28;20122;-85
2024/01/29 02:30:19;;;;;;;1.10;1.10;;;6.80;1.00;;;;;;5068253;28;20114;-86
2024/01/29 02:32:45;;;;;;;1.10;1.10;;;6.80;1.00;;;;;;5068421;28;20673;-85
2024/01/29 02:35:11;;;;;;;1.00;1.00;;;6.80;1.00;;;;;;5067931;28;20044;-86
2024/01/29 02:37:37;;;;;;;1.05;1.05;;;7.00;1.00;;;;;;5066941;28;20047;-85
2024/01/29 02:40:05;;;;;;;1.00;1.00;;;7.00;1.00;;;;;;5069150;28;20036;-85
2024/01/29 02:42:30;;;;;;;1.00;1.00;;;6.90;1.00;;;;;;5069306;28;20036;-85
2024/01/29 02:44:56;;;;;;;1.10;1.10;;;6.80;1.00;;;;;;5069217;28;20111;-85
2024/01/29 02:47:22;;;;;;;1.10;1.10;;;6.90;1.00;;;;;;5066772;28;20420;-85
2024/01/29 02:49:48;;;;;;;1.10;1.10;;;6.80;1.00;;;;;;5069891;28;20607;-86
2024/01/29 02:52:13;;;;;;;1.00;1.00;;;6.70;1.00;;;;;;5071503;28;20122;-86
2024/01/29 02:54:39;;;;;;;1.10;1.10;;;6.80;1.00;;;;;;5069433;28;20158;-86
2024/01/29 02:57:06;;;;;;;1.00;1.00;;;6.70;1.00;;;;;;5054939;28;20630;-86
2024/01/29 02:59:32;;;;;;;1.00;1.00;;;6.70;1.00;;;;;;5068601;28;21119;-86
2024/01/29 03:01:58;;;;;;;1.10;1.10;;;6.70;1.00;;;;;;5069685;28;20578;-86
2024/01/29 03:04:24;;;;;;;1.00;1.00;;;6.70;1.00;;;;;;5068853;28;20076;-86
2024/01/29 03:06:50;;;;;;;1.00;1.00;;;6.70;1.00;;;;;;5066956;28;20444;-86
2024/01/29 03:09:15;;;;;;;1.00;1.00;;;6.80;1.00;;;;;;5070208;28;20056;-86
2024/01/29 03:11:41;;;;;;;1.10;1.10;;;6.80;1.00;;;;;;5068830;28;20055;-86
2024/01/29 03:14:08;;;;;;;1.00;1.00;;;6.80;1.00;;;;;;5052688;28;20129;-86
2024/01/29 03:16:34;;;;;;;1.00;1.00;;;6.70;1.00;;;;;;5068786;28;20040;-86
2024/01/29 03:19:00;;;;;;;1.00;1.00;;;6.60;1.00;;;;;;5068712;28;20044;-86
2024/01/29 03:21:27;;;;;;;1.10;1.10;;;6.60;1.00;;;;;;5069372;28;20039;-86
2024/01/29 03:23:56;;;;;;;1.00;1.00;;;6.60;1.00;;;;;;5053115;28;20553;-87
2024/01/29 03:26:22;;;;;;;1.10;1.10;;;6.50;1.00;;;;;;5064969;28;20044;-87
2024/01/29 03:28:48;;;;;;;1.10;1.10;;;6.60;1.00;;;;;;5069336;28;20066;-86
2024/01/29 03:31:14;;;;;;;1.10;1.10;;;6.40;1.00;;;;;;5069346;28;20548;-86
2024/01/29 03:33:40;;;;;;;1.10;1.10;;;6.40;1.00;;;;;;5051811;28;20075;-86
2024/01/29 03:36:06;;;;;;;1.20;1.20;;;6.30;1.00;;;;;;5062570;28;20508;-86
2024/01/29 03:38:32;;;;;;;1.10;1.10;;;6.30;1.00;;;;;;5069374;28;20048;-86
2024/01/29 03:40:59;;;;;;;1.10;1.10;;;6.20;1.00;;;;;;5051745;28;20040;-85
2024/01/29 03:43:25;;;;;;;1.10;1.10;;;6.20;1.00;;;;;;5052638;28;20132;-86
2024/01/29 03:45:52;;;;;;;1.10;1.10;;;6.20;1.00;;;;;;5068828;28;20056;-86
2024/01/29 03:48:18;;;;;;;1.20;1.20;;;6.20;1.00;;;;;;5051940;28;20051;-86
2024/01/29 03:50:44;;;;;;;1.30;1.30;;;6.20;11.70;;;;;;5064304;28;20044;-86
2024/01/29 03:53:10;;;;;;;1.30;1.30;;;6.10;20.00;;;;;;5052991;28;20104;-87
2024/01/29 03:55:36;;;;;;;1.20;1.20;;;6.00;39.30;;;;;;5067462;28;20040;-86
2024/01/29 03:58:01;;;;;;;1.20;1.20;;;6.00;58.40;;;;;;5060567;28;20075;-86
2024/01/29 04:00:29;;;;;;;1.30;1.30;;;6.00;81.10;;;;;;5043307;28;20145;-86
2024/01/29 04:02:55;;;;;;;1.30;1.30;;;6.00;80.90;;;;;;5052407;28;20036;-86
2024/01/29 04:05:21;;;;;;;1.50;1.40;;;5.90;93.60;;;;;;5067733;28;20928;-85
2024/01/29 04:07:46;;;;;;;1.40;1.38;;;5.80;99.90;;;;;;5053574;28;20547;-86
2024/01/29 04:10:12;;;;;;;1.50;1.40;;;5.80;99.90;;;;;;5069250;28;20493;-86
2024/01/29 04:12:38;;;;;;;1.67;1.58;;;5.90;99.90;;;;;;5067838;28;20444;-85
2024/01/29 04:15:04;;;;;;;1.60;1.50;;;5.90;99.90;;;;;;5067414;28;20040;-85
2024/01/29 04:17:30;;;;;;;1.65;1.55;;;6.00;99.90;;;;;;5068490;28;20044;-87
2024/01/29 04:19:55;;;;;;;1.70;1.60;;;6.00;99.90;;;;;;5066718;28;20406;-85
2024/01/29 04:22:21;;;;;;;1.52;1.42;;;6.00;99.90;;;;;;5068520;28;20596;-86
2024/01/29 04:24:47;;;;;;;1.60;1.50;;;6.10;79.40;;;;;;5053419;28;20602;-86
2024/01/29 04:27:13;;;;;;;1.67;1.58;;;6.00;74.80;;;;;;5067411;28;20127;-85
2024/01/29 04:29:38;;;;;;;1.60;1.50;;;6.00;96.90;;;;;;5068108;28;20039;-86
2024/01/29 04:32:04;;;;;;;1.60;1.50;;;6.00;98.30;;;;;;5056947;28;20070;-86
2024/01/29 04:34:30;;;;;;;1.60;1.50;;;6.00;98.60;;;;;;5066602;28;20515;-85
2024/01/29 04:36:56;;;;;;;1.70;1.60;;;5.90;98.50;;;;;;5069101;28;20036;-85
2024/01/29 04:39:22;;;;;;;1.60;1.50;;;5.90;99.90;;;;;;5050069;28;20040;-86
2024/01/29 04:41:48;;;;;;;1.60;1.50;;;5.90;99.90;;;;;;5061866;28;20044;-86
2024/01/29 04:44:16;;;;;;;1.70;1.60;;;6.00;99.90;;;;;;5067461;28;20078;-87
2024/01/29 04:46:42;;;;;;;1.60;1.50;;;6.00;99.90;;;;;;5068576;28;20036;-86
2024/01/29 04:49:07;;;;;;;1.70;1.60;;;6.00;99.90;;;;;;5062602;28;20437;-85
2024/01/29 04:51:33;;;;;;;1.63;1.52;;;6.00;99.90;;;;;;5067356;28;20040;-86
2024/01/29 04:53:59;;;;;;;1.70;1.60;;;5.90;99.90;;;;;;5068101;28;20040;-85
2024/01/29 04:56:24;;;;;;;1.80;1.70;;;6.00;99.90;;;;;;5050486;28;20048;-86
2024/01/29 04:58:50;;;;;;;1.80;1.70;;;6.00;99.90;;;;;;5067100;28;20075;-86
2024/01/29 05:01:16;;;;;;;1.70;1.60;;;6.00;99.90;;;;;;5069147;28;20127;-86
2024/01/29 05:03:42;;;;;;;1.80;1.70;;;6.00;99.90;;;;;;5066837;28;20086;-87
2024/01/29 05:06:07;;;;;;;1.70;1.60;;;6.00;99.90;;;;;;5067367;28;20043;-86
2024/01/29 05:08:33;;;;;;;1.73;1.63;;;5.90;99.90;;;;;;5064899;28;20037;-86
2024/01/29 05:10:59;;;;;;;1.70;1.60;;;5.90;99.90;;;;;;5049389;28;20289;-85
2024/01/29 05:13:25;;;;;;;1.60;1.50;;;5.80;99.90;;;;;;5052381;28;20048;-86
2024/01/29 05:15:50;;;;;;;1.70;1.60;;;5.80;99.90;;;;;;5066947;28;20193;-86
2024/01/29 05:18:16;;;;;;;1.70;1.60;;;5.80;99.90;;;;;;5048885;28;20150;-86
2024/01/29 05:20:42;;;;;;;1.70;1.60;;;5.90;99.90;;;;;;5067621;28;20048;-86
2024/01/29 05:23:07;;;;;;;1.70;1.60;;;5.80;99.90;;;;;;5064758;28;20069;-86
2024/01/29 05:25:33;;;;;;;1.80;1.70;;;5.80;99.90;;;;;;5039776;28;20052;-86
2024/01/29 05:27:59;;;;;;;1.60;1.50;;;5.80;99.90;;;;;;5065661;28;20702;-86
2024/01/29 05:30:25;;;;;;;1.75;1.65;;;5.80;99.90;;;;;;5066905;28;20510;-86
2024/01/29 05:32:51;;;;;;;1.77;1.67;;;5.80;99.90;;;;;;5049860;28;20058;-86
2024/01/29 05:35:17;;;;;;;1.70;1.60;;;5.80;99.90;;;;;;5062243;28;20040;-86
2024/01/29 05:37:42;;;;;;;1.77;1.67;;;5.80;99.90;;;;;;5067971;28;20105;-86
2024/01/29 05:40:11;;;;;;;1.77;1.67;;;5.80;99.90;;;;;;5069771;28;20059;-86
2024/01/29 05:42:37;;;;;;;1.70;1.60;;;5.70;99.90;;;;;;5067014;28;20048;-86
2024/01/29 05:45:03;;;;;;;1.75;1.65;;;5.70;99.90;;;;;;5048784;28;20051;-86
2024/01/29 05:47:29;;;;;;;1.70;1.60;;;5.80;99.90;;;;;;5053099;28;20044;-86
2024/01/29 05:49:55;;;;;;;1.60;1.50;;;5.70;99.90;;;;;;5065497;28;20040;-86
2024/01/29 05:52:21;;;;;;;1.67;1.58;;;5.80;99.90;;;;;;5044736;28;20051;-86
2024/01/29 05:54:46;;;;;;;1.63;1.52;;;5.80;99.90;;;;;;5067250;28;20461;-86
2024/01/29 05:57:12;;;;;;;1.75;1.65;;;5.90;99.90;;;;;;5051907;28;20036;-86
2024/01/29 05:59:41;;;;;;;1.60;1.50;;;5.80;99.90;;;;;;5066569;28;20071;-87
2024/01/29 06:02:07;;;;;;;1.70;1.60;;;5.80;99.90;;;;;;5064530;28;20123;-87
2024/01/29 06:04:33;;;;;;;1.60;1.50;;;5.80;99.90;;;;;;5065590;28;20143;-86
2024/01/29 06:06:59;;;;;;;1.70;1.60;;;5.90;99.90;;;;;;5066409;28;20048;-85
2024/01/29 06:09:24;;;;;;;1.85;1.75;;;5.90;99.90;;;;;;5064568;28;20580;-86
2024/01/29 06:11:50;;;;;;;1.80;1.70;;;5.90;99.90;;;;;;5051785;28;20040;-86
2024/01/29 06:14:17;;;;;;;1.70;1.60;;;5.90;99.90;;;;;;5066101;28;20120;-87
2024/01/29 06:16:43;;;;;;;1.60;1.50;;;5.90;99.90;;;;;;5065694;28;20048;-86
2024/01/29 06:19:14;;;;;;;1.60;1.50;;;5.90;99.90;;;;;;5068082;28;20096;-86
2024/01/29 06:21:42;;;;;;;1.70;1.60;;;6.00;99.90;;;;;;5083759;28;20199;-85
2024/01/29 06:24:07;;;;;;;1.60;1.50;;;6.00;99.90;;;;;;5067542;28;20047;-86
2024/01/29 06:26:33;;;;;;;1.60;1.50;;;5.90;99.90;;;;;;5069391;28;20104;-86
2024/01/29 06:28:59;;;;;;;1.70;1.60;;;5.90;99.90;;;;;;5066044;28;20079;-86
2024/01/29 06:31:24;;;;;;;1.70;1.60;;;5.90;99.90;;;;;;5066631;28;20036;-86
2024/01/29 06:33:53;;;;;;;1.67;1.58;;;5.80;99.90;;;;;;5047834;28;20083;-86
2024/01/29 06:36:19;;;;;;;1.70;1.60;;;5.80;99.90;;;;;;5071000;28;20079;-86
2024/01/29 06:38:46;;;;;;;1.60;1.50;;;5.70;99.90;;;;;;5068676;28;20055;-85
2024/01/29 06:41:21;;;;;;;1.75;1.65;;;5.80;99.90;;;;;;5071127;28;20113;-86
2024/01/29 06:43:47;;;;;;;1.70;1.60;;;5.80;99.90;;;;;;5072214;28;20151;-86
2024/01/29 06:46:12;;;;;;;1.73;1.63;;;5.80;99.90;;;;;;5052027;28;20134;-86
2024/01/29 06:48:38;;;;;;;1.70;1.60;;;5.90;99.90;;;;;;5069192;28;20074;-86
2024/01/29 06:51:04;;;;;;;1.70;1.60;;;5.80;99.90;;;;;;5071486;28;20122;-86
2024/01/29 06:53:32;;;;;;;1.83;1.73;;;6.00;99.90;;;;;;5050230;28;20048;-85
2024/01/29 06:55:59;;;;;;;1.60;1.50;;;6.00;99.90;;;;;;5065405;28;20041;-86
2024/01/29 06:58:25;;;;;;;1.60;1.50;;;6.10;99.90;;;;;;5064758;28;20055;-85
2024/01/29 07:00:51;;;;;;;1.70;1.60;;;6.10;99.90;;;;;;5066280;28;20040;-86
2024/01/29 07:03:18;;;;;;;1.70;1.60;;;6.10;99.90;;;;;;5066847;28;20044;-87
2024/01/29 07:05:47;;;;;;;1.67;1.58;;;6.20;99.90;;;;;;5064601;28;20106;-87
2024/01/29 07:08:13;;;;;;;1.60;1.50;;;6.20;99.90;;;;;;5063629;28;20514;-86
2024/01/29 07:10:39;;;;;;;1.60;1.50;;;6.20;99.90;;;;;;5065290;28;20040;-86
2024/01/29 07:13:04;;;;;;;1.60;1.50;;;6.20;99.90;;;;;;5066070;28;20519;-85
2024/01/29 07:15:30;;;;;;;1.60;1.50;;;6.20;99.90;;;;;;5051440;28;20068;-85
2024/01/29 07:17:56;;;;;;;1.65;1.55;;;6.30;99.90;;;;;;5063300;28;20047;-85
2024/01/29 07:20:21;;;;;;;1.60;1.50;;;6.30;99.90;;;;;;5061483;28;20059;-85
2024/01/29 07:22:47;;;;;;;1.55;1.45;;;6.30;99.90;;;;;;5048904;28;20047;-85
2024/01/29 07:25:13;;;;;;;1.60;1.50;;;6.30;99.90;;;;;;5062393;28;20048;-85
2024/01/29 07:27:38;;;;;;;1.50;1.40;;;6.30;99.90;;;;;;5065377;28;20044;-86
2024/01/29 07:30:05;;;;;;;1.60;1.50;;;6.20;99.90;;;;;;5064513;28;20131;-86
2024/01/29 07:32:33;;;;;;;1.50;1.40;;;6.30;99.90;;;;;;5066483;28;20040;-87
2024/01/29 07:35:00;;;;;;;1.50;1.40;;;6.30;99.90;;;;;;5051565;28;20151;-86
2024/01/29 07:37:27;;;;;;;1.52;1.42;;;6.30;99.90;;;;;;5066285;28;20044;-86
2024/01/29 07:39:53;;;;;;;1.40;1.40;;;6.30;99.90;;;;;;5068270;28;20048;-86
2024/01/29 07:42:19;;;;;;;1.40;1.40;;;6.40;99.90;;;;;;5066893;28;20386;-85
2024/01/29 07:44:44;;;;;;;1.50;1.40;;;6.40;99.90;;;;;;5051149;28;20123;-85
2024/01/29 07:47:10;;;;;;;1.30;1.30;;;6.50;99.90;;;;;;5069652;28;20127;-86
2024/01/29 07:49:36;;;;;;;1.30;1.30;;;6.50;99.90;;;;;;5068212;28;20059;-85
2024/01/29 07:52:06;;;;;;;1.30;1.30;;;6.60;99.90;;;;;;5067617;28;20040;-86
2024/01/29 07:54:35;;;;;;;1.30;1.30;;;6.60;99.90;;;;;;5055199;28;20071;-85
2024/01/29 07:57:03;;;;;;;1.20;1.20;;;6.70;99.90;;;;;;5067697;28;20048;-86
2024/01/29 07:59:29;;;;;;;1.23;1.23;;;6.70;99.90;;;;;;5071746;28;20052;-85
2024/01/29 08:01:55;;;;;;;1.10;1.10;;;6.70;99.90;;;;;;5069776;28;20516;-85
2024/01/29 08:04:21;;;;;;;1.10;1.10;;;6.80;99.90;;;;;;5063474;28;20139;-85
2024/01/29 08:06:47;;;;;;;1.10;1.10;;;6.80;99.90;;;;;;5066939;28;20469;-86
2024/01/29 08:09:13;;;;;;;1.10;1.10;;;6.80;99.90;;;;;;5067832;28;20043;-85
2024/01/29 08:11:39;;;;;;;1.00;1.00;;;6.80;99.90;;;;;;5065880;28;20044;-88
2024/01/29 08:14:05;;;;;;;1.00;1.00;;;7.00;99.90;;;;;;5067798;28;20073;-86
2024/01/29 08:16:31;;;;;;;1.00;1.00;;;7.10;99.90;;;;;;5067926;28;20512;-85
2024/01/29 08:18:58;;;;;;;1.00;1.00;;;7.20;99.90;;;;;;5067036;28;20056;-86
2024/01/29 08:21:24;;;;;;;1.00;1.00;;;7.40;99.90;;;;;;5068535;28;20043;-85
2024/01/29 08:23:50;;;;;;;1.10;1.10;;;7.40;99.90;;;;;;5065619;28;20067;-86
2024/01/29 08:26:16;;;;;;;1.15;1.15;;;7.50;99.90;;;;;;5069047;28;20075;-87
2024/01/29 08:28:42;;;;;;;1.20;1.20;;;7.50;99.90;;;;;;5068164;28;20492;-86
2024/01/29 08:31:09;;;;;;;1.23;1.23;;;7.60;99.90;;;;;;5068043;28;20645;-85
2024/01/29 08:33:34;;;;;;;1.30;1.30;;;7.70;99.90;;;;;;5068555;28;20556;-85
2024/01/29 08:36:00;;;;;;;1.50;1.40;;;7.70;99.90;;;;;;5067558;28;20054;-85
2024/01/29 08:38:26;;;;;;;1.75;1.65;;;7.80;99.90;;;;;;5067842;28;20047;-86
2024/01/29 08:40:52;;;;;;;1.67;1.58;;;7.90;99.90;;;;;;5068266;28;20048;-85
2024/01/29 08:43:18;;;;;;;1.60;1.50;;;8.00;99.90;;;;;;5068061;28;20059;-86
2024/01/29 08:45:43;;;;;;;1.70;1.60;;;8.10;99.90;;;;;;5067008;28;20048;-84
2024/01/29 08:48:09;;;;;;;1.70;1.60;;;8.40;92.60;;;;;;5068014;28;20445;-85
2024/01/29 08:50:35;;;;;;;1.80;1.70;;;8.60;51.80;;;;;;5066699;28;20097;-87
2024/01/29 08:53:03;;;;;;;1.90;1.80;;;8.80;17.90;;;;;;5066419;28;20466;-86
2024/01/29 08:55:30;;;;;;;1.92;1.83;;;8.90;13.30;;;;;;5067262;28;20052;-85
2024/01/29 08:57:55;;;;;;;2.20;2.10;;;9.00;21.30;;;;;;5067876;28;20140;-84
2024/01/29 09:00:21;;;;;;;2.45;2.35;;;9.10;1.00;;;;;;5063467;28;20512;-85
2024/01/29 09:02:49;;;;;;;2.60;2.50;;;9.20;1.00;;;;;;5062056;28;20067;-85
2024/01/29 09:05:15;;;;;;;2.90;2.70;;;9.30;1.00;;;;;;5058102;28;20051;-86
2024/01/29 09:07:41;;;;;;;2.60;2.50;;;9.40;1.00;;;;;;5065823;28;20092;-85
2024/01/29 09:10:08;;;;;;;2.88;2.67;;;9.50;1.00;;;;;;5067444;28;20039;-84
2024/01/29 09:12:33;;;;;;;2.60;2.50;;;9.60;1.00;;;;;;5065146;28;20052;-83
2024/01/29 09:14:59;;;;;;;2.72;2.58;;;9.60;1.00;;;;;;5050165;28;20534;-85
2024/01/29 09:17:25;;;;;;;2.17;2.08;;;9.60;1.00;;;;;;5067363;28;20055;-85
2024/01/29 09:19:51;;;;;;;2.15;2.05;;;9.60;1.00;;;;;;5066994;28;20043;-85
2024/01/29 09:22:18;;;;;;;1.92;1.83;;;9.60;1.00;;;;;;5065786;28;20052;-84
2024/01/29 09:24:43;;;;;;;1.67;1.58;;;9.70;1.00;;;;;;5050655;28;20476;-84
2024/01/29 09:27:10;;;;;;;1.85;1.75;;;9.80;1.00;;;;;;5067271;28;20104;-85
2024/01/29 09:29:36;;;;;;;1.30;1.30;;;9.80;1.00;;;;;;5064520;28;20399;-87
2024/01/29 09:32:01;;;;;;;1.75;1.65;;;9.80;1.00;;;;;;5048469;28;20078;-85
2024/01/29 09:34:27;;;;;;;1.60;1.50;;;10.00;1.00;;;;;;5043108;28;20104;-86
2024/01/29 09:36:53;;;;;;;1.23;1.23;;;10.00;1.00;;;;;;5067291;28;20127;-85
2024/01/29 09:39:19;;;;;;;1.30;1.30;;;10.10;1.00;;;;;;5066864;28;20047;-85
2024/01/29 09:41:46;;;;;;;1.10;1.10;;;10.00;1.00;;;;;;5066944;28;20044;-85
2024/01/29 09:44:12;;;;;;;1.10;1.10;;;10.10;1.00;;;;;;5064930;28;20127;-86
2024/01/29 09:46:40;;;;;;;1.05;1.05;;;10.20;1.00;;;;;;5064980;28;20046;-86
2024/01/29 09:49:07;;;;;;;1.00;1.00;;;10.30;1.00;;;;;;5083668;28;20036;-85
2024/01/29 09:51:33;;;;;;;0.90;0.90;;;10.50;1.00;;;;;;5049080;28;20139;-85
2024/01/29 09:54:01;;;;;;;0.90;0.90;;;10.60;1.00;;;;;;5065938;28;20085;-85
2024/01/29 09:56:28;;;;;;;0.90;0.90;;;10.60;1.00;;;;;;5066669;28;20131;-85
2024/01/29 09:58:54;;;;;;;0.90;0.90;;;10.70;1.00;;;;;;5047303;28;20047;-86
2024/01/29 10:01:22;;;;;;;0.80;0.80;;;10.70;1.00;;;;;;5066228;28;20129;-87
2024/01/29 10:03:48;;;;;;;0.70;0.70;;;10.90;1.00;;;;;;5066472;28;20048;-87
2024/01/29 10:06:14;;;;;;;0.90;0.90;;;11.00;1.00;;;;;;5050860;28;20040;-86
2024/01/29 10:08:40;;;;;;;0.80;0.80;;;10.90;1.00;;;;;;5066511;28;20650;-84
2024/01/29 10:11:07;;;;;;;0.70;0.70;;;11.00;1.00;;;;;;5056785;28;20043;-85
2024/01/29 10:13:34;;;;;;;0.73;0.73;;;11.00;1.00;;;;;;5068731;28;20054;-84
2024/01/29 10:16:00;;;;;;;0.82;0.82;;;11.00;1.00;;;;;;5053763;28;20044;-85
2024/01/29 10:18:26;;;;;;;0.80;0.80;;;11.10;1.00;;;;;;5069650;28;20538;-84
2024/01/29 10:21:01;;;;;;;0.75;0.75;;;11.00;1.00;;;;;;5068623;28;20044;-86
2024/01/29 10:23:27;;;;;;;0.80;0.80;;;11.00;1.00;;;;;;5071241;28;20058;-85
2024/01/29 10:26:00;;;;;;;0.80;0.80;;;10.90;1.00;;;;;;5068090;28;20443;-84
2024/01/29 10:28:31;;;;;;;0.80;0.80;;;10.90;1.00;;;;;;5087729;28;20032;-85
2024/01/29 10:30:58;;;;;;;0.73;0.73;;;10.90;1.00;;;;;;5053278;28;20044;-84
2024/01/29 10:33:23;;;;;;;0.80;0.80;;;10.90;1.00;;;;;;5048174;28;20097;-85
2024/01/29 10:35:49;;;;;;;0.80;0.80;;;11.00;1.00;;;;;;5053752;28;20545;-85
2024/01/29 10:38:20;;;;;;;0.80;0.80;;;11.00;1.00;;;;;;5070316;28;20143;-85
2024/01/29 10:40:46;;;;;;;0.80;0.80;;;11.00;1.00;;;;;;5052743;28;20093;-85
2024/01/29 10:43:22;;;;;;;0.80;0.80;;;11.00;1.00;;;;;;5052921;28;20039;-86
2024/01/29 10:45:51;;;;;;;0.80;0.80;;;11.00;1.00;;;;;;5070444;28;20549;-86
2024/01/29 10:48:21;;;;;;;0.77;0.77;;;11.00;1.00;;;;;;5070128;28;20051;-84
2024/01/29 10:50:48;;;;;;;0.80;0.80;;;11.10;1.00;;;;;;5069850;28;20059;-85
2024/01/29 10:53:16;;;;;;;0.80;0.80;;;11.20;1.00;;;;;;5086238;28;20048;-86
2024/01/29 10:55:49;;;;;;;0.80;0.80;;;11.30;1.00;;;;;;5069526;28;20046;-85
2024/01/29 10:58:15;;;;;;;0.70;0.70;;;11.40;1.00;;;;;;5070058;28;20498;-85
2024/01/29 11:00:43;;;;;;;0.80;0.80;;;11.40;1.00;;;;;;5053198;28;20047;-85
2024/01/29 11:03:13;;;;;;;0.70;0.70;;;11.50;1.00;;;;;;5050767;28;20044;-85
2024/01/29 11:05:43;;;;;;;0.80;0.80;;;11.40;1.00;;;;;;5070002;28;20839;-86
2024/01/29 11:08:19;;;;;;;0.82;0.82;;;11.40;1.00;;;;;;5069307;28;20062;-86
2024/01/29 11:10:45;;;;;;;0.80;0.80;;;11.50;1.00;;;;;;5067222;28;20044;-86
2024/01/29 11:13:13;;;;;;;0.80;0.80;;;11.50;1.00;;;;;;5066583;28;20055;-85
2024/01/29 11:15:41;;;;;;;0.95;0.95;;;11.40;1.00;;;;;;5051231;28;20517;-85
2024/01/29 11:18:08;;;;;;;0.80;0.80;;;11.40;1.00;;;;;;5068447;28;20044;-85
2024/01/29 11:20:33;;;;;;;0.80;0.80;;;11.40;1.00;;;;;;5053496;28;20052;-85
2024/01/29 11:23:02;;;;;;;0.80;0.80;;;11.40;1.00;;;;;;5068077;28;20047;-85
2024/01/29 11:25:29;;;;;;;0.80;0.80;;;11.50;1.00;;;;;;5072208;28;20564;-86
2024/01/29 11:27:56;;;;;;;0.90;0.90;;;11.60;1.00;;;;;;5056530;28;20044;-86
2024/01/29 11:30:24;;;;;;;0.80;0.80;;;11.70;1.00;;;;;;5068071;28;20538;-85
2024/01/29 11:32:53;;;;;;;0.80;0.80;;;11.70;1.00;;;;;;5054961;28;20152;-87
2024/01/29 11:35:23;;;;;;;0.80;0.80;;;11.90;1.00;;;;;;5070620;28;20040;-87
2024/01/29 11:37:52;;;;;;;0.90;0.90;;;12.00;1.00;;;;;;5068372;28;20036;-86
2024/01/29 11:40:40;;;;;;;0.80;0.80;;;12.10;1.00;;;;;;5069039;28;20413;-86
2024/01/29 11:43:19;;;;;;;0.80;0.80;;;12.10;1.00;;;;;;5067761;28;20215;-87
2024/01/29 11:45:49;;;;;;;0.90;0.90;;;12.20;1.00;;;;;;5068140;28;20044;-86
2024/01/29 11:48:17;;;;;;;1.00;1.00;;;12.30;1.00;;;;;;5069579;28;20560;-85
2024/01/29 11:50:45;;;;;;;0.85;0.85;;;12.50;1.00;;;;;;5068301;28;20070;-85
2024/01/29 11:53:16;;;;;;;1.10;1.10;;;12.60;1.00;;;;;;5066721;28;20332;-86
2024/01/29 11:55:42;;;;;;;1.00;1.00;;;12.60;1.00;;;;;;5065985;28;20040;-87
2024/01/29 11:58:16;;;;;;;1.00;1.00;;;12.70;1.00;;;;;;5052310;28;20044;-85
2024/01/29 12:00:43;;;;;;;1.08;1.08;;;12.90;1.00;;;;;;5066111;28;20509;-85
2024/01/29 12:03:11;;;;;;;1.20;1.20;;;13.00;1.00;;;;;;5067742;28;20051;-87
2024/01/29 12:05:37;;;;;;;1.20;1.20;;;12.80;1.00;;;;;;5068247;28;20040;-84
2024/01/29 12:08:03;;;;;;;1.30;1.30;;;13.00;1.00;;;;;;5072479;28;20539;-85
2024/01/29 12:10:29;;;;;;;1.30;1.30;;;13.00;1.00;;;;;;5068241;28;20075;-85
2024/01/29 12:12:55;;;;;;;1.63;1.52;;;13.20;1.00;;;;;;5067237;28;20075;-86
2024/01/29 12:15:20;;;;;;;1.80;1.70;;;13.20;1.00;;;;;;5051656;28;20513;-85
2024/01/29 12:17:49;;;;;;;1.70;1.60;;;13.30;1.00;;;;;;5068461;28;20118;-87
2024/01/29 12:20:15;;;;;;;1.80;1.70;;;13.40;1.00;;;;;;5063764;28;20044;-86
2024/01/29 12:22:42;;;;;;;1.85;1.75;;;13.50;1.00;;;;;;5049427;28;20070;-87
2024/01/29 12:25:14;;;;;;;1.70;1.60;;;13.70;1.00;;;;;;5067278;28;20044;-87
2024/01/29 12:27:40;;;;;;;1.83;1.73;;;13.60;1.00;;;;;;5067822;28;20048;-87
2024/01/29 12:30:13;;;;;;;1.75;1.65;;;13.60;1.00;;;;;;5068011;28;20135;-85
2024/01/29 12:32:42;;;;;;;1.70;1.60;;;13.70;1.00;;;;;;5064775;28;20488;-86
2024/01/29 12:35:31;;;;;;;1.88;1.77;;;13.80;1.00;;;;;;5063680;28;20047;-85
2024/01/29 12:38:05;;;;;;;1.83;1.73;;;13.90;1.00;;;;;;5050377;28;20672;-85
2024/01/29 12:40:31;;;;;;;2.10;2.00;;;14.00;1.00;;;;;;5067732;28;20067;-85
2024/01/29 12:43:01;;;;;;;2.00;1.90;;;13.90;1.00;;;;;;5067327;28;20580;-85
2024/01/29 12:45:27;;;;;;;3.15;2.95;;;13.60;1.00;;;;;;5066590;28;20051;-84
2024/01/29 12:48:09;;;;;;;2.17;2.08;;;13.40;1.00;;;;;;5065272;28;20663;-86
2024/01/29 12:50:37;;;;;;;1.70;1.60;;;13.30;1.00;;;;;;5066500;28;20653;-86
2024/01/29 12:53:03;;;;;;;2.42;2.33;;;13.10;1.00;;;;;;5064421;28;20589;-86
2024/01/29 12:55:29;;;;;;;1.70;1.60;;;13.20;1.00;;;;;;5049447;28;20051;-85
2024/01/29 12:57:55;;;;;;;1.63;1.52;;;13.20;1.00;;;;;;5066274;28;20043;-86